Stations météo

réclame
Mon MeteoGroup
Ile du Levant, France (7678): Température de l'air & dewpoint: 18.01.2020 01:00:00 - 24.01.2020 01:00:00 (CET)Ile du Levant, France (7678): Vitesse du vent & gusts: 18.01.2020 01:00:00 - 24.01.2020 01:00:00 (CET)Ile du Levant, France (7678): Direction du vent: 18.01.2020 01:00:00 - 24.01.2020 01:00:00 (CET)Ile du Levant, France (7678): reduced air pressure: 18.01.2020 01:00:00 - 24.01.2020 01:00:00 (CET)Ile du Levant, France (7678): Ensoleillement: 18.01.2020 01:00:00 - 24.01.2020 01:00:00 (CET)Ile du Levant, France (7678): Quantités de précipitations: 18.01.2020 01:00:00 - 24.01.2020 01:00:00 (CET)
Date & Time tt [°C] td [°C] ff [km/h] ff [knt] fx [km/h] fx [knt] dd ppp [hPa] sd [min] rr [mm]
24.01.2020 01:00:00 - - - - - - - - - -
24.01.2020 00:00:00 12,7 8,6 37 20 55 30 E 1025,6 0 0,0
23.01.2020 23:00:00 12,7 8,8 41 22 55 30 E 1025,5 0 0,0
23.01.2020 22:00:00 12,7 8,6 41 22 59 32 E 1025,7 0 0,0
23.01.2020 21:00:00 12,7 9,0 42 23 55 30 E 1025,4 0 0,0
23.01.2020 20:00:00 12,4 9,9 37 20 55 30 E 1025,5 0 0,0
23.01.2020 19:00:00 12,4 10,5 39 21 57 31 E 1025,5 0 -
23.01.2020 18:00:00 12,3 10,7 41 22 59 32 E 1025,3 0 0,0
23.01.2020 17:00:00 12,6 11,0 41 22 61 33 E 1025,2 0 0,0
23.01.2020 16:00:00 13,0 11,1 44 24 63 34 E 1025,1 0 0,0
23.01.2020 15:00:00 13,8 11,1 39 21 63 34 E 1025,2 24 0,0
23.01.2020 14:00:00 13,8 11,1 50 27 74 40 E 1025,2 48 0,0
23.01.2020 13:00:00 14,3 11,3 57 31 76 41 E 1025,4 54 -
23.01.2020 12:00:00 14,1 11,3 50 27 67 36 E 1025,8 18 0,0
23.01.2020 11:00:00 14,0 10,6 50 27 65 35 E 1026,6 30 0,0
23.01.2020 10:00:00 12,9 10,6 46 25 70 38 E 1026,3 24 0,0
23.01.2020 09:00:00 12,8 10,7 48 26 63 34 E 1026,3 0 0,0
23.01.2020 08:00:00 12,5 10,6 48 26 67 36 E 1025,9 0 0,0
23.01.2020 07:00:00 12,6 10,7 39 21 59 32 E 1025,8 0 -
23.01.2020 06:00:00 12,5 10,4 37 20 52 28 E 1026,2 0 0,0
23.01.2020 05:00:00 12,7 10,6 39 21 54 29 E 1026,3 0 0,0
23.01.2020 04:00:00 12,7 10,8 41 22 65 35 E 1026,3 0 0,0
23.01.2020 03:00:00 12,6 10,3 46 25 70 38 E 1025,5 0 0,0
23.01.2020 02:00:00 12,7 10,4 48 26 72 39 E 1025,8 0 0,0
23.01.2020 01:00:00 12,8 10,3 50 27 81 44 E 1025,8 0 -
23.01.2020 00:00:00 12,8 10,2 48 26 70 38 E 1026,2 0 0,0
22.01.2020 23:00:00 12,8 9,8 50 27 68 37 E 1026,3 0 0,0
22.01.2020 22:00:00 12,9 9,7 50 27 70 38 E 1026,4 0 0,0
22.01.2020 21:00:00 13,0 9,6 50 27 74 40 E 1026,4 0 0,0
22.01.2020 20:00:00 12,9 9,7 54 29 80 43 E 1026,5 0 0,0
22.01.2020 19:00:00 12,6 10,0 54 29 80 43 E 1026,7 0 -
22.01.2020 18:00:00 12,5 10,0 52 28 81 44 E 1027,0 0 0,0
22.01.2020 17:00:00 12,6 9,8 54 29 76 41 E 1026,6 24 0,0
22.01.2020 16:00:00 13,2 10,0 52 28 78 42 E 1027,0 60 0,0
22.01.2020 15:00:00 13,6 10,0 55 30 76 41 E 1027,7 54 0,0
22.01.2020 14:00:00 14,1 10,1 54 29 80 43 E 1028,3 60 0,0
22.01.2020 13:00:00 13,8 9,4 55 30 81 44 E 1028,9 42 -
22.01.2020 12:00:00 13,1 8,8 55 30 83 45 E 1029,9 0 0,0
22.01.2020 11:00:00 12,7 8,0 59 32 85 46 E 1029,9 0 0,0
22.01.2020 10:00:00 12,5 7,4 59 32 87 47 E 1029,7 0 0,0
22.01.2020 09:00:00 12,4 7,1 59 32 93 50 E 1029,4 0 0,0
22.01.2020 08:00:00 12,2 6,2 63 34 93 50 E 1029,2 0 0,0
22.01.2020 07:00:00 12,2 5,8 68 37 93 50 E 1029,0 0 -
22.01.2020 06:00:00 12,1 5,3 61 33 96 52 E 1029,0 0 0,2
22.01.2020 05:00:00 11,7 6,4 63 34 93 50 E 1029,9 0 0,2
22.01.2020 04:00:00 11,3 6,6 61 33 91 49 E 1029,9 0 0,4
22.01.2020 03:00:00 12,5 5,2 63 34 94 51 E 1030,7 0 0,0
22.01.2020 02:00:00 12,3 4,3 70 38 93 50 E 1031,0 0 0,0
22.01.2020 01:00:00 12,2 4,7 63 34 93 50 E 1031,5 0 -
22.01.2020 00:00:00 12,2 4,4 63 34 94 51 E 1032,0 0 0,0
21.01.2020 23:00:00 11,9 4,4 65 35 93 50 E 1031,5 0 0,0
21.01.2020 22:00:00 12,0 4,0 59 32 83 45 E 1032,5 0 0,2
21.01.2020 21:00:00 11,8 4,0 63 34 93 50 E 1032,8 0 0,0
21.01.2020 20:00:00 11,9 3,1 65 35 93 50 E 1031,7 0 0,0
21.01.2020 19:00:00 11,7 3,9 67 36 96 52 E 1031,4 0 -
21.01.2020 18:00:00 11,4 3,9 65 35 94 51 E 1031,6 0 0,0
21.01.2020 17:00:00 11,3 3,3 68 37 98 53 E 1031,4 0 0,0
21.01.2020 16:00:00 11,4 1,9 67 36 96 52 E 1031,9 0 0,0
21.01.2020 15:00:00 11,4 1,9 72 39 102 55 E 1032,2 0 0,0
21.01.2020 14:00:00 11,3 0,4 74 40 102 55 E 1032,6 12 0,0
21.01.2020 13:00:00 11,4 0,2 70 38 102 55 E 1033,6 0 -
21.01.2020 12:00:00 11,3 0,7 74 40 106 57 E 1034,7 0 0,0
21.01.2020 11:00:00 11,1 0,2 78 42 107 58 E 1034,3 0 0,0
21.01.2020 10:00:00 10,8 0,2 78 42 115 62 E 1034,1 0 0,0
21.01.2020 09:00:00 10,7 1,5 80 43 126 68 E 1033,2 0 0,0
21.01.2020 08:00:00 10,5 1,0 87 47 122 66 E 1032,6 0 0,0
21.01.2020 07:00:00 10,1 2,2 81 44 117 63 E 1032,8 0 -
21.01.2020 06:00:00 9,5 1,4 81 44 120 65 E 1033,0 0 0,2
21.01.2020 05:00:00 9,1 1,5 74 40 122 66 E 1033,4 0 0,8
21.01.2020 04:00:00 9,4 2,0 85 46 117 63 E 1033,3 0 0,0
21.01.2020 03:00:00 10,5 1,0 83 45 115 62 E 1033,8 0 0,0
21.01.2020 02:00:00 10,3 1,1 76 41 117 63 E 1033,6 0 0,0
21.01.2020 01:00:00 10,4 -0,2 85 46 120 65 E 1033,7 0 -
21.01.2020 00:00:00 10,1 0,1 74 40 119 64 E 1033,9 0 0,0
20.01.2020 23:00:00 9,8 -1,0 80 43 120 65 E 1033,8 0 0,0
20.01.2020 22:00:00 9,0 1,2 78 42 117 63 E 1033,9 0 0,4
20.01.2020 21:00:00 8,8 1,9 81 44 117 63 E 1033,5 0 0,4
20.01.2020 20:00:00 10,0 1,6 81 44 122 66 E 1032,9 0 0,2
20.01.2020 19:00:00 9,9 -0,1 78 42 122 66 E 1031,8 0 -
20.01.2020 18:00:00 10,3 0,0 89 48 122 66 E 1031,5 0 0,0
20.01.2020 17:00:00 10,3 0,3 81 44 117 63 E 1031,3 0 0,0
20.01.2020 16:00:00 10,4 -1,0 76 41 119 64 E 1031,0 0 0,0
20.01.2020 15:00:00 10,4 -0,4 76 41 115 62 E 1030,9 0 0,0
20.01.2020 14:00:00 10,4 0,4 83 45 120 65 E 1031,1 0 0,0
20.01.2020 13:00:00 10,5 -0,4 83 45 119 64 E 1030,9 0 -
20.01.2020 12:00:00 10,7 1,2 81 44 117 63 E 1031,2 0 0,0
20.01.2020 11:00:00 10,5 0,5 81 44 120 65 E 1030,8 0 0,0
20.01.2020 10:00:00 10,6 0,0 81 44 117 63 E 1029,8 0 0,0
20.01.2020 09:00:00 10,7 0,4 70 38 115 62 E 1029,5 0 0,0
20.01.2020 08:00:00 10,7 0,1 68 37 117 63 E 1028,8 0 0,0
20.01.2020 07:00:00 10,6 0,6 70 38 115 62 E 1028,4 0 -
20.01.2020 06:00:00 10,6 0,3 76 41 109 59 E 1027,8 0 0,0
20.01.2020 05:00:00 10,5 0,5 74 40 117 63 E 1027,4 0 0,0
20.01.2020 04:00:00 10,8 1,6 78 42 111 60 E 1027,5 0 0,0
20.01.2020 03:00:00 10,8 0,2 65 35 111 60 E 1027,1 0 0,0
20.01.2020 02:00:00 11,0 0,4 70 38 106 57 E 1027,2 0 0,0
20.01.2020 01:00:00 11,1 -1,0 54 29 98 53 E 1027,0 0 -
20.01.2020 00:00:00 11,1 -1,0 59 32 96 52 E 1026,6 0 0,0
19.01.2020 23:00:00 11,1 -0,7 63 34 100 54 E 1026,0 0 0,0
19.01.2020 22:00:00 11,1 -2,4 65 35 102 55 E 1026,1 0 0,0
19.01.2020 21:00:00 11,2 -1,9 52 28 93 50 E 1025,8 0 0,0
19.01.2020 20:00:00 11,6 0,4 67 36 96 52 E 1024,6 0 0,0
19.01.2020 19:00:00 11,2 1,7 63 34 89 48 E 1024,4 0 -
19.01.2020 18:00:00 10,9 2,5 57 31 80 43 E 1024,1 0 0,0
19.01.2020 17:00:00 11,1 1,9 50 27 76 41 E 1023,9 0 0,0
19.01.2020 16:00:00 11,5 1,7 54 29 76 41 E 1023,5 0 0,0
19.01.2020 15:00:00 11,5 2,2 54 29 85 46 E 1022,9 0 0,0
19.01.2020 14:00:00 11,4 3,7 59 32 81 44 E 1022,6 0 0,0
19.01.2020 13:00:00 11,4 2,9 61 33 81 44 E 1022,5 0 -
19.01.2020 12:00:00 11,4 3,9 48 26 76 41 E 1023,2 6 0,0
19.01.2020 11:00:00 11,3 4,0 50 27 70 38 E 1023,0 0 0,0
19.01.2020 10:00:00 10,7 4,4 41 22 57 31 E 1022,5 0 0,0
19.01.2020 09:00:00 10,6 3,6 39 21 55 30 E 1022,0 12 0,0
19.01.2020 08:00:00 10,4 3,7 35 19 54 29 E 1021,8 0 0,0
19.01.2020 07:00:00 10,4 5,6 34 18 55 30 E 1021,5 0 -
19.01.2020 06:00:00 10,3 6,1 29 16 44 24 E 1021,1 0 0,0
19.01.2020 05:00:00 9,8 6,3 24 13 39 21 E 1021,2 0 0,0
19.01.2020 04:00:00 8,9 7,2 18 10 29 16 E 1021,7 0 0,0
19.01.2020 03:00:00 8,7 7,3 15 8 22 12 ENE 1022,0 0 0,0
19.01.2020 02:00:00 8,4 5,9 13 7 18 10 ENE 1022,2 0 0,0
19.01.2020 01:00:00 8,2 4,6 9 5 16 9 E 1022,3 0 -
19.01.2020 00:00:00 8,6 2,6 8 4 13 7 E 1022,3 0 0,0
18.01.2020 23:00:00 9,1 2,2 4 2 8 4 ENE 1022,4 0 0,0
18.01.2020 22:00:00 9,3 2,2 4 2 8 4 E 1022,3 0 0,0
18.01.2020 21:00:00 9,8 2,9 5 3 15 8 W 1022,3 0 0,0
18.01.2020 20:00:00 9,2 1,6 11 6 18 10 W 1022,2 0 0,0
18.01.2020 19:00:00 9,3 1,2 8 4 26 14 W 1022,1 0 -
18.01.2020 18:00:00 10,3 1,1 18 10 29 16 WNW 1022,1 12 0,0
18.01.2020 17:00:00 10,8 1,6 18 10 29 16 WNW 1022,1 42 0,0
18.01.2020 16:00:00 11,7 0,7 22 12 35 19 WNW 1022,3 54 0,0
18.01.2020 15:00:00 11,6 1,8 26 14 41 22 WNW 1022,1 42 0,0
18.01.2020 14:00:00 10,3 1,4 28 15 50 27 WNW 1022,9 36 0,0
18.01.2020 13:00:00 10,7 1,5 34 18 54 29 WNW 1023,1 48 -
18.01.2020 12:00:00 9,8 0,4 35 19 63 34 WNW 1024,2 36 0,0
18.01.2020 11:00:00 9,5 0,1 31 17 65 35 WNW 1024,9 24 0,0
18.01.2020 10:00:00 9,3 1,2 37 20 72 39 NW 1024,7 54 0,0
18.01.2020 09:00:00 8,8 2,6 55 30 74 40 WNW 1023,2 42 0,0
18.01.2020 08:00:00 9,2 3,0 54 29 76 41 WNW 1022,9 0 0,0
18.01.2020 07:00:00 9,4 2,5 48 26 70 38 W 1023,7 0 -
18.01.2020 06:00:00 9,8 2,4 46 25 67 36 WNW 1023,1 0 0,0
18.01.2020 05:00:00 10,3 1,1 29 16 67 36 WNW 1023,3 0 0,0
18.01.2020 04:00:00 10,5 2,8 46 25 80 43 NW 1022,5 0 0,0
18.01.2020 03:00:00 10,7 2,0 50 27 94 51 NW 1021,8 0 0,0
18.01.2020 02:00:00 11,1 2,6 61 33 94 51 WNW 1021,2 0 0,0
18.01.2020 01:00:00 11,2 2,7 63 34 94 51 WNW 1021,6 0 -

tt = Température de l'air
td = dewpoint
ff = Vitesse du vent
fx = gusts
dd = Direction du vent
ppp = reduced air pressure
sd = Ensoleillement
rr = Quantités de précipitations

stations d'obs. à proximité